sensor_id;sensor_type;location;lat;lon;timestamp;temperature;humidity
49441;DHT22;35317;51.978;6.296;2022-07-11T00:02:15;18.60;90.60
49441;DHT22;35317;51.978;6.296;2022-07-11T00:07:16;18.50;90.70
49441;DHT22;35317;51.978;6.296;2022-07-11T00:12:17;18.50;90.70
49441;DHT22;35317;51.978;6.296;2022-07-11T00:17:20;18.50;90.80
49441;DHT22;35317;51.978;6.296;2022-07-11T00:22:21;18.50;90.90
49441;DHT22;35317;51.978;6.296;2022-07-11T00:27:22;18.50;90.90
49441;DHT22;35317;51.978;6.296;2022-07-11T00:32:23;18.50;91.00
49441;DHT22;35317;51.978;6.296;2022-07-11T00:37:24;18.30;91.00
49441;DHT22;35317;51.978;6.296;2022-07-11T00:42:25;18.40;91.10
49441;DHT22;35317;51.978;6.296;2022-07-11T00:47:26;18.40;91.20
49441;DHT22;35317;51.978;6.296;2022-07-11T00:52:27;18.40;91.30
49441;DHT22;35317;51.978;6.296;2022-07-11T00:57:28;18.40;91.30
49441;DHT22;35317;51.978;6.296;2022-07-11T01:02:31;18.30;91.60
49441;DHT22;35317;51.978;6.296;2022-07-11T01:07:32;18.30;91.30
49441;DHT22;35317;51.978;6.296;2022-07-11T01:12:32;18.30;91.20
49441;DHT22;35317;51.978;6.296;2022-07-11T01:17:33;18.30;91.10
49441;DHT22;35317;51.978;6.296;2022-07-11T01:22:37;18.20;91.00
49441;DHT22;35317;51.978;6.296;2022-07-11T01:27:40;18.30;91.00
49441;DHT22;35317;51.978;6.296;2022-07-11T01:32:41;18.30;91.00
49441;DHT22;35317;51.978;6.296;2022-07-11T01:37:42;18.20;91.00
49441;DHT22;35317;51.978;6.296;2022-07-11T01:42:43;18.20;91.00
49441;DHT22;35317;51.978;6.296;2022-07-11T01:47:44;18.20;91.10
49441;DHT22;35317;51.978;6.296;2022-07-11T01:52:45;18.10;91.10
49441;DHT22;35317;51.978;6.296;2022-07-11T01:57:45;18.10;91.20
49441;DHT22;35317;51.978;6.296;2022-07-11T02:02:46;18.10;91.30
49441;DHT22;35317;51.978;6.296;2022-07-11T02:07:47;18.10;91.40
49441;DHT22;35317;51.978;6.296;2022-07-11T02:13:06;18.00;91.50
49441;DHT22;35317;51.978;6.296;2022-07-11T02:18:08;18.00;91.60
49441;DHT22;35317;51.978;6.296;2022-07-11T02:23:09;18.00;91.70
49441;DHT22;35317;51.978;6.296;2022-07-11T02:28:10;18.00;91.70
49441;DHT22;35317;51.978;6.296;2022-07-11T02:33:12;18.00;91.80
49441;DHT22;35317;51.978;6.296;2022-07-11T02:38:15;18.00;91.90
49441;DHT22;35317;51.978;6.296;2022-07-11T02:43:16;17.90;91.90
49441;DHT22;35317;51.978;6.296;2022-07-11T02:48:17;17.90;92.00
49441;DHT22;35317;51.978;6.296;2022-07-11T02:53:18;17.90;92.10
49441;DHT22;35317;51.978;6.296;2022-07-11T02:58:19;17.80;92.20
49441;DHT22;35317;51.978;6.296;2022-07-11T03:03:19;17.80;92.30
49441;DHT22;35317;51.978;6.296;2022-07-11T03:08:21;17.80;92.40
49441;DHT22;35317;51.978;6.296;2022-07-11T03:13:21;17.80;92.40
49441;DHT22;35317;51.978;6.296;2022-07-11T03:18:22;17.80;92.50
49441;DHT22;35317;51.978;6.296;2022-07-11T03:23:23;17.70;92.50
49441;DHT22;35317;51.978;6.296;2022-07-11T03:28:23;17.70;92.50
49441;DHT22;35317;51.978;6.296;2022-07-11T03:33:24;17.70;92.50
49441;DHT22;35317;51.978;6.296;2022-07-11T03:38:25;17.60;92.50
49441;DHT22;35317;51.978;6.296;2022-07-11T03:43:26;17.60;92.60
49441;DHT22;35317;51.978;6.296;2022-07-11T03:48:27;17.60;92.70
49441;DHT22;35317;51.978;6.296;2022-07-11T03:53:28;17.60;92.80
49441;DHT22;35317;51.978;6.296;2022-07-11T03:58:28;17.50;92.70
49441;DHT22;35317;51.978;6.296;2022-07-11T04:03:30;17.50;92.80
49441;DHT22;35317;51.978;6.296;2022-07-11T04:08:30;17.50;92.80
49441;DHT22;35317;51.978;6.296;2022-07-11T04:13:31;17.50;92.90
49441;DHT22;35317;51.978;6.296;2022-07-11T04:18:32;17.50;93.20
49441;DHT22;35317;51.978;6.296;2022-07-11T04:23:33;17.50;93.00
49441;DHT22;35317;51.978;6.296;2022-07-11T04:28:33;17.50;93.00
49441;DHT22;35317;51.978;6.296;2022-07-11T04:33:34;17.60;93.10
49441;DHT22;35317;51.978;6.296;2022-07-11T04:38:35;17.60;93.00
49441;DHT22;35317;51.978;6.296;2022-07-11T04:43:36;17.60;93.00
49441;DHT22;35317;51.978;6.296;2022-07-11T04:48:38;17.70;93.00
49441;DHT22;35317;51.978;6.296;2022-07-11T04:53:38;17.70;92.90
49441;DHT22;35317;51.978;6.296;2022-07-11T04:58:39;17.80;92.80
49441;DHT22;35317;51.978;6.296;2022-07-11T05:03:40;17.70;92.90
49441;DHT22;35317;51.978;6.296;2022-07-11T05:08:41;17.70;93.20
49441;DHT22;35317;51.978;6.296;2022-07-11T05:13:41;17.80;93.20
49441;DHT22;35317;51.978;6.296;2022-07-11T05:18:42;17.80;93.20
49441;DHT22;35317;51.978;6.296;2022-07-11T05:23:43;17.90;93.20
49441;DHT22;35317;51.978;6.296;2022-07-11T05:28:44;17.90;93.10
49441;DHT22;35317;51.978;6.296;2022-07-11T05:33:44;18.10;93.10
49441;DHT22;35317;51.978;6.296;2022-07-11T05:38:45;18.20;92.90
49441;DHT22;35317;51.978;6.296;2022-07-11T05:43:46;18.40;92.70
49441;DHT22;35317;51.978;6.296;2022-07-11T05:48:47;18.60;92.40
49441;DHT22;35317;51.978;6.296;2022-07-11T05:53:47;18.80;92.10
49441;DHT22;35317;51.978;6.296;2022-07-11T05:58:48;18.90;91.70
49441;DHT22;35317;51.978;6.296;2022-07-11T06:03:49;19.10;91.40
49441;DHT22;35317;51.978;6.296;2022-07-11T06:08:50;19.20;91.20
49441;DHT22;35317;51.978;6.296;2022-07-11T06:13:51;19.30;91.00
49441;DHT22;35317;51.978;6.296;2022-07-11T06:18:52;19.40;90.80
49441;DHT22;35317;51.978;6.296;2022-07-11T06:23:53;19.40;90.60
49441;DHT22;35317;51.978;6.296;2022-07-11T06:28:54;19.40;90.50
49441;DHT22;35317;51.978;6.296;2022-07-11T06:33:55;19.50;90.30
49441;DHT22;35317;51.978;6.296;2022-07-11T06:38:57;19.50;90.40
49441;DHT22;35317;51.978;6.296;2022-07-11T06:43:59;19.50;90.30
49441;DHT22;35317;51.978;6.296;2022-07-11T06:48:59;19.60;90.20
49441;DHT22;35317;51.978;6.296;2022-07-11T06:54:00;19.90;90.10
49441;DHT22;35317;51.978;6.296;2022-07-11T06:59:01;20.10;89.50
49441;DHT22;35317;51.978;6.296;2022-07-11T07:04:02;20.20;88.50
49441;DHT22;35317;51.978;6.296;2022-07-11T07:09:02;20.20;88.50
49441;DHT22;35317;51.978;6.296;2022-07-11T07:14:03;20.20;88.60
49441;DHT22;35317;51.978;6.296;2022-07-11T07:19:04;20.10;89.00
49441;DHT22;35317;51.978;6.296;2022-07-11T07:24:05;20.10;89.20
49441;DHT22;35317;51.978;6.296;2022-07-11T07:29:06;20.30;89.20
49441;DHT22;35317;51.978;6.296;2022-07-11T07:34:07;20.60;88.50
49441;DHT22;35317;51.978;6.296;2022-07-11T07:39:09;21.00;87.40
49441;DHT22;35317;51.978;6.296;2022-07-11T07:44:10;21.10;86.50
49441;DHT22;35317;51.978;6.296;2022-07-11T07:49:11;21.40;85.60
49441;DHT22;35317;51.978;6.296;2022-07-11T07:54:11;21.60;84.00
49441;DHT22;35317;51.978;6.296;2022-07-11T07:59:13;21.70;83.00
49441;DHT22;35317;51.978;6.296;2022-07-11T08:04:14;21.60;83.10
49441;DHT22;35317;51.978;6.296;2022-07-11T08:09:15;21.50;83.50
49441;DHT22;35317;51.978;6.296;2022-07-11T08:14:16;21.50;82.70
49441;DHT22;35317;51.978;6.296;2022-07-11T08:19:16;21.60;82.80
49441;DHT22;35317;51.978;6.296;2022-07-11T08:24:17;21.70;82.00
49441;DHT22;35317;51.978;6.296;2022-07-11T08:29:18;21.60;82.70
49441;DHT22;35317;51.978;6.296;2022-07-11T08:34:19;21.40;82.40
49441;DHT22;35317;51.978;6.296;2022-07-11T08:39:19;21.10;82.80
49441;DHT22;35317;51.978;6.296;2022-07-11T08:44:20;20.90;83.70
49441;DHT22;35317;51.978;6.296;2022-07-11T08:49:22;21.00;83.70
49441;DHT22;35317;51.978;6.296;2022-07-11T08:54:23;21.10;83.50
49441;DHT22;35317;51.978;6.296;2022-07-11T08:59:25;21.30;82.80
49441;DHT22;35317;51.978;6.296;2022-07-11T09:04:27;21.50;82.30
49441;DHT22;35317;51.978;6.296;2022-07-11T09:09:29;21.80;81.60
49441;DHT22;35317;51.978;6.296;2022-07-11T09:14:31;22.30;80.20
49441;DHT22;35317;51.978;6.296;2022-07-11T09:19:34;22.60;78.90
49441;DHT22;35317;51.978;6.296;2022-07-11T09:24:55;22.50;78.10
49441;DHT22;35317;51.978;6.296;2022-07-11T09:30:26;22.40;78.30
49441;DHT22;35317;51.978;6.296;2022-07-11T09:35:34;22.10;78.80
49441;DHT22;35317;51.978;6.296;2022-07-11T09:40:36;22.20;79.40
49441;DHT22;35317;51.978;6.296;2022-07-11T09:45:37;22.30;79.30
49441;DHT22;35317;51.978;6.296;2022-07-11T09:50:40;22.30;78.80
49441;DHT22;35317;51.978;6.296;2022-07-11T09:55:54;22.20;78.80
49441;DHT22;35317;51.978;6.296;2022-07-11T10:00:55;22.30;79.20
49441;DHT22;35317;51.978;6.296;2022-07-11T10:05:56;22.50;78.60
49441;DHT22;35317;51.978;6.296;2022-07-11T10:10:57;22.80;77.80
49441;DHT22;35317;51.978;6.296;2022-07-11T10:16:00;23.30;76.60
49441;DHT22;35317;51.978;6.296;2022-07-11T10:21:19;23.50;75.40
49441;DHT22;35317;51.978;6.296;2022-07-11T10:27:00;23.30;75.30
49441;DHT22;35317;51.978;6.296;2022-07-11T10:32:07;23.20;75.50
49441;DHT22;35317;51.978;6.296;2022-07-11T10:37:09;22.90;76.30
49441;DHT22;35317;51.978;6.296;2022-07-11T10:42:19;22.80;76.60
49441;DHT22;35317;51.978;6.296;2022-07-11T10:47:34;22.80;77.10
49441;DHT22;35317;51.978;6.296;2022-07-11T10:52:43;23.00;77.00
49441;DHT22;35317;51.978;6.296;2022-07-11T11:03:11;22.70;77.20
49441;DHT22;35317;51.978;6.296;2022-07-11T11:13:33;22.50;77.70
49441;DHT22;35317;51.978;6.296;2022-07-11T11:18:41;22.60;77.50
49441;DHT22;35317;51.978;6.296;2022-07-11T11:23:44;22.40;77.90
49441;DHT22;35317;51.978;6.296;2022-07-11T11:29:05;22.50;78.20
49441;DHT22;35317;51.978;6.296;2022-07-11T11:34:07;22.70;78.20
49441;DHT22;35317;51.978;6.296;2022-07-11T11:39:07;23.10;77.70
49441;DHT22;35317;51.978;6.296;2022-07-11T11:44:08;23.30;76.60
49441;DHT22;35317;51.978;6.296;2022-07-11T11:49:09;23.70;75.10
49441;DHT22;35317;51.978;6.296;2022-07-11T11:54:10;23.80;73.70
49441;DHT22;35317;51.978;6.296;2022-07-11T11:59:11;24.00;73.20
49441;DHT22;35317;51.978;6.296;2022-07-11T12:04:16;23.90;72.50
49441;DHT22;35317;51.978;6.296;2022-07-11T12:09:21;23.90;72.90
49441;DHT22;35317;51.978;6.296;2022-07-11T12:14:42;23.80;73.40
49441;DHT22;35317;51.978;6.296;2022-07-11T12:19:43;23.70;72.90
49441;DHT22;35317;51.978;6.296;2022-07-11T12:24:49;23.90;72.90
49441;DHT22;35317;51.978;6.296;2022-07-11T12:29:52;24.00;72.80
49441;DHT22;35317;51.978;6.296;2022-07-11T12:34:52;23.90;73.00
49441;DHT22;35317;51.978;6.296;2022-07-11T12:39:55;23.80;73.50
49441;DHT22;35317;51.978;6.296;2022-07-11T12:45:08;23.90;73.70
49441;DHT22;35317;51.978;6.296;2022-07-11T12:50:17;24.00;73.50
49441;DHT22;35317;51.978;6.296;2022-07-11T12:55:33;24.10;72.70
49441;DHT22;35317;51.978;6.296;2022-07-11T13:00:37;24.10;72.60
49441;DHT22;35317;51.978;6.296;2022-07-11T13:06:00;24.10;73.10
49441;DHT22;35317;51.978;6.296;2022-07-11T13:11:03;24.30;73.20
49441;DHT22;35317;51.978;6.296;2022-07-11T13:16:04;24.40;72.10
49441;DHT22;35317;51.978;6.296;2022-07-11T13:21:06;24.30;71.80
49441;DHT22;35317;51.978;6.296;2022-07-11T13:26:08;24.40;71.30
49441;DHT22;35317;51.978;6.296;2022-07-11T13:31:10;24.60;71.30
49441;DHT22;35317;51.978;6.296;2022-07-11T13:36:10;24.50;71.40
49441;DHT22;35317;51.978;6.296;2022-07-11T13:41:11;24.30;71.60
49441;DHT22;35317;51.978;6.296;2022-07-11T13:46:12;24.10;71.70
49441;DHT22;35317;51.978;6.296;2022-07-11T13:51:13;24.10;72.10
49441;DHT22;35317;51.978;6.296;2022-07-11T13:56:13;24.00;71.90
49441;DHT22;35317;51.978;6.296;2022-07-11T14:01:14;23.90;72.00
49441;DHT22;35317;51.978;6.296;2022-07-11T14:06:15;23.80;72.20
49441;DHT22;35317;51.978;6.296;2022-07-11T14:11:16;23.70;72.40
49441;DHT22;35317;51.978;6.296;2022-07-11T14:16:16;23.60;72.50
49441;DHT22;35317;51.978;6.296;2022-07-11T14:21:18;23.60;72.90
49441;DHT22;35317;51.978;6.296;2022-07-11T14:26:19;23.70;72.90
49441;DHT22;35317;51.978;6.296;2022-07-11T14:31:20;23.80;72.70
49441;DHT22;35317;51.978;6.296;2022-07-11T14:36:22;24.00;72.10
49441;DHT22;35317;51.978;6.296;2022-07-11T14:41:25;24.00;71.80
49441;DHT22;35317;51.978;6.296;2022-07-11T14:46:26;24.20;71.80
49441;DHT22;35317;51.978;6.296;2022-07-11T14:51:26;24.30;71.70
49441;DHT22;35317;51.978;6.296;2022-07-11T14:56:27;24.40;71.60
49441;DHT22;35317;51.978;6.296;2022-07-11T15:01:28;24.60;70.70
49441;DHT22;35317;51.978;6.296;2022-07-11T15:06:29;24.70;70.50
49441;DHT22;35317;51.978;6.296;2022-07-11T15:11:48;24.90;69.90
49441;DHT22;35317;51.978;6.296;2022-07-11T15:17:07;25.10;69.50
49441;DHT22;35317;51.978;6.296;2022-07-11T15:22:08;25.50;69.10
49441;DHT22;35317;51.978;6.296;2022-07-11T15:27:09;25.90;67.30
49441;DHT22;35317;51.978;6.296;2022-07-11T15:32:10;26.10;65.50
49441;DHT22;35317;51.978;6.296;2022-07-11T15:37:11;25.80;65.20
49441;DHT22;35317;51.978;6.296;2022-07-11T15:42:11;25.70;65.70
49441;DHT22;35317;51.978;6.296;2022-07-11T15:47:12;25.90;65.40
49441;DHT22;35317;51.978;6.296;2022-07-11T15:52:13;26.20;64.10
49441;DHT22;35317;51.978;6.296;2022-07-11T15:57:14;26.30;63.80
49441;DHT22;35317;51.978;6.296;2022-07-11T16:02:15;26.50;63.40
49441;DHT22;35317;51.978;6.296;2022-07-11T16:07:15;26.70;62.90
49441;DHT22;35317;51.978;6.296;2022-07-11T16:12:16;26.90;62.30
49441;DHT22;35317;51.978;6.296;2022-07-11T16:17:17;27.10;61.90
49441;DHT22;35317;51.978;6.296;2022-07-11T16:22:18;26.80;61.70
49441;DHT22;35317;51.978;6.296;2022-07-11T16:27:19;26.30;62.50
49441;DHT22;35317;51.978;6.296;2022-07-11T16:32:19;26.20;62.50
49441;DHT22;35317;51.978;6.296;2022-07-11T16:37:23;26.10;63.10
49441;DHT22;35317;51.978;6.296;2022-07-11T16:42:24;26.00;62.80
49441;DHT22;35317;51.978;6.296;2022-07-11T16:47:43;25.80;63.40
49441;DHT22;35317;51.978;6.296;2022-07-11T16:52:44;25.60;63.40
49441;DHT22;35317;51.978;6.296;2022-07-11T16:57:45;25.40;64.10
49441;DHT22;35317;51.978;6.296;2022-07-11T17:02:45;25.40;64.30
49441;DHT22;35317;51.978;6.296;2022-07-11T17:07:47;25.50;64.80
49441;DHT22;35317;51.978;6.296;2022-07-11T17:13:07;25.40;64.90
49441;DHT22;35317;51.978;6.296;2022-07-11T17:18:08;25.30;65.20
49441;DHT22;35317;51.978;6.296;2022-07-11T17:23:09;25.20;65.70
49441;DHT22;35317;51.978;6.296;2022-07-11T17:28:14;25.10;66.10
49441;DHT22;35317;51.978;6.296;2022-07-11T17:33:15;24.90;66.70
49441;DHT22;35317;51.978;6.296;2022-07-11T17:38:17;24.60;66.90
49441;DHT22;35317;51.978;6.296;2022-07-11T17:43:21;24.50;67.30
49441;DHT22;35317;51.978;6.296;2022-07-11T17:48:22;24.30;67.70
49441;DHT22;35317;51.978;6.296;2022-07-11T17:53:23;24.10;67.70
49441;DHT22;35317;51.978;6.296;2022-07-11T17:58:24;24.00;68.10
49441;DHT22;35317;51.978;6.296;2022-07-11T18:03:24;23.90;68.80
49441;DHT22;35317;51.978;6.296;2022-07-11T18:08:25;23.70;69.20
49441;DHT22;35317;51.978;6.296;2022-07-11T18:13:27;23.50;69.10
49441;DHT22;35317;51.978;6.296;2022-07-11T18:18:28;23.40;69.70
49441;DHT22;35317;51.978;6.296;2022-07-11T18:23:29;23.20;69.80
49441;DHT22;35317;51.978;6.296;2022-07-11T18:28:29;23.00;70.50
49441;DHT22;35317;51.978;6.296;2022-07-11T18:33:30;22.80;71.10
49441;DHT22;35317;51.978;6.296;2022-07-11T18:38:31;22.70;71.80
49441;DHT22;35317;51.978;6.296;2022-07-11T18:43:51;22.50;72.20
49441;DHT22;35317;51.978;6.296;2022-07-11T18:49:04;22.40;72.60
49441;DHT22;35317;51.978;6.296;2022-07-11T18:54:05;22.20;73.20
49441;DHT22;35317;51.978;6.296;2022-07-11T18:59:06;22.10;73.90
49441;DHT22;35317;51.978;6.296;2022-07-11T19:04:07;21.90;74.70
49441;DHT22;35317;51.978;6.296;2022-07-11T19:09:08;21.80;75.20
49441;DHT22;35317;51.978;6.296;2022-07-11T19:14:09;21.60;75.90
49441;DHT22;35317;51.978;6.296;2022-07-11T19:19:12;21.30;76.60
49441;DHT22;35317;51.978;6.296;2022-07-11T19:24:13;21.10;76.60
49441;DHT22;35317;51.978;6.296;2022-07-11T19:29:16;20.90;77.60
49441;DHT22;35317;51.978;6.296;2022-07-11T19:34:17;20.70;78.60
49441;DHT22;35317;51.978;6.296;2022-07-11T19:39:17;20.60;79.50
49441;DHT22;35317;51.978;6.296;2022-07-11T19:44:18;20.40;80.40
49441;DHT22;35317;51.978;6.296;2022-07-11T19:49:19;20.20;81.30
49441;DHT22;35317;51.978;6.296;2022-07-11T19:54:20;20.00;82.30
49441;DHT22;35317;51.978;6.296;2022-07-11T19:59:39;19.80;83.50
49441;DHT22;35317;51.978;6.296;2022-07-11T20:04:41;19.60;84.40
49441;DHT22;35317;51.978;6.296;2022-07-11T20:09:41;19.40;85.00
49441;DHT22;35317;51.978;6.296;2022-07-11T20:14:42;19.30;85.80
49441;DHT22;35317;51.978;6.296;2022-07-11T20:19:43;19.10;86.90
49441;DHT22;35317;51.978;6.296;2022-07-11T20:24:44;18.90;87.30
49441;DHT22;35317;51.978;6.296;2022-07-11T20:29:45;18.80;88.10
49441;DHT22;35317;51.978;6.296;2022-07-11T20:34:46;18.70;89.00
49441;DHT22;35317;51.978;6.296;2022-07-11T20:39:46;18.60;89.60
49441;DHT22;35317;51.978;6.296;2022-07-11T20:44:47;18.50;90.00
49441;DHT22;35317;51.978;6.296;2022-07-11T20:49:48;18.40;90.40
49441;DHT22;35317;51.978;6.296;2022-07-11T20:54:49;18.20;90.70
49441;DHT22;35317;51.978;6.296;2022-07-11T20:59:51;18.20;91.00
49441;DHT22;35317;51.978;6.296;2022-07-11T21:04:53;18.20;91.20
49441;DHT22;35317;51.978;6.296;2022-07-11T21:09:54;18.10;91.50
49441;DHT22;35317;51.978;6.296;2022-07-11T21:14:55;18.00;91.70
49441;DHT22;35317;51.978;6.296;2022-07-11T21:19:55;17.90;92.00
49441;DHT22;35317;51.978;6.296;2022-07-11T21:24:56;17.80;92.20
49441;DHT22;35317;51.978;6.296;2022-07-11T21:29:57;17.70;92.50
49441;DHT22;35317;51.978;6.296;2022-07-11T21:34:58;17.60;93.00
49441;DHT22;35317;51.978;6.296;2022-07-11T21:39:58;17.50;92.90
49441;DHT22;35317;51.978;6.296;2022-07-11T21:44:59;17.40;93.10
49441;DHT22;35317;51.978;6.296;2022-07-11T21:50:00;17.30;93.20
49441;DHT22;35317;51.978;6.296;2022-07-11T21:55:01;17.20;93.40
49441;DHT22;35317;51.978;6.296;2022-07-11T22:00:03;17.20;93.70
49441;DHT22;35317;51.978;6.296;2022-07-11T22:05:09;17.00;93.90
49441;DHT22;35317;51.978;6.296;2022-07-11T22:10:10;17.00;94.20
49441;DHT22;35317;51.978;6.296;2022-07-11T22:15:11;16.90;94.40
49441;DHT22;35317;51.978;6.296;2022-07-11T22:20:12;16.80;94.60
49441;DHT22;35317;51.978;6.296;2022-07-11T22:25:13;16.70;94.70
49441;DHT22;35317;51.978;6.296;2022-07-11T22:30:14;16.70;94.90
49441;DHT22;35317;51.978;6.296;2022-07-11T22:35:14;16.60;95.10
49441;DHT22;35317;51.978;6.296;2022-07-11T22:40:16;16.50;95.30
49441;DHT22;35317;51.978;6.296;2022-07-11T22:45:18;16.40;95.50
49441;DHT22;35317;51.978;6.296;2022-07-11T22:50:19;16.40;95.70
49441;DHT22;35317;51.978;6.296;2022-07-11T22:55:20;16.30;95.80
49441;DHT22;35317;51.978;6.296;2022-07-11T23:00:21;16.20;95.90
49441;DHT22;35317;51.978;6.296;2022-07-11T23:05:22;16.20;96.10
49441;DHT22;35317;51.978;6.296;2022-07-11T23:10:23;16.20;96.20
49441;DHT22;35317;51.978;6.296;2022-07-11T23:15:24;16.10;96.40
49441;DHT22;35317;51.978;6.296;2022-07-11T23:20:24;16.00;96.60
49441;DHT22;35317;51.978;6.296;2022-07-11T23:25:25;16.00;96.80
49441;DHT22;35317;51.978;6.296;2022-07-11T23:30:26;15.90;96.90
49441;DHT22;35317;51.978;6.296;2022-07-11T23:35:27;15.80;97.00
49441;DHT22;35317;51.978;6.296;2022-07-11T23:40:27;15.70;97.20
49441;DHT22;35317;51.978;6.296;2022-07-11T23:45:28;15.70;97.40
49441;DHT22;35317;51.978;6.296;2022-07-11T23:50:29;15.60;97.50
49441;DHT22;35317;51.978;6.296;2022-07-11T23:55:30;15.50;97.60
